sensor_id;sensor_type;location;lat;lon;timestamp;temperature;humidity
35541;DHT22;21650;48.840;9.162;2023-08-08T00:02:18;13.70;99.90
35541;DHT22;21650;48.840;9.162;2023-08-08T00:04:43;13.70;99.90
35541;DHT22;21650;48.840;9.162;2023-08-08T00:07:09;13.70;99.90
35541;DHT22;21650;48.840;9.162;2023-08-08T00:09:35;13.70;99.90
35541;DHT22;21650;48.840;9.162;2023-08-08T00:12:01;13.70;99.90
35541;DHT22;21650;48.840;9.162;2023-08-08T00:14:27;13.70;99.90
35541;DHT22;21650;48.840;9.162;2023-08-08T00:16:52;13.80;99.90
35541;DHT22;21650;48.840;9.162;2023-08-08T00:19:19;13.80;99.90
35541;DHT22;21650;48.840;9.162;2023-08-08T00:21:44;13.80;99.90
35541;DHT22;21650;48.840;9.162;2023-08-08T00:24:10;13.90;99.90
35541;DHT22;21650;48.840;9.162;2023-08-08T00:26:36;13.90;99.90
35541;DHT22;21650;48.840;9.162;2023-08-08T00:29:01;13.90;99.90
35541;DHT22;21650;48.840;9.162;2023-08-08T00:31:27;13.90;99.90
35541;DHT22;21650;48.840;9.162;2023-08-08T00:33:52;13.90;99.90
35541;DHT22;21650;48.840;9.162;2023-08-08T00:36:18;14.00;99.90
35541;DHT22;21650;48.840;9.162;2023-08-08T00:38:43;14.00;99.90
35541;DHT22;21650;48.840;9.162;2023-08-08T00:41:09;14.00;99.90
35541;DHT22;21650;48.840;9.162;2023-08-08T00:43:35;14.00;99.90
35541;DHT22;21650;48.840;9.162;2023-08-08T00:46:00;14.00;99.90
35541;DHT22;21650;48.840;9.162;2023-08-08T00:48:26;14.10;99.90
35541;DHT22;21650;48.840;9.162;2023-08-08T00:50:52;14.10;99.90
35541;DHT22;21650;48.840;9.162;2023-08-08T00:53:18;14.00;99.90
35541;DHT22;21650;48.840;9.162;2023-08-08T00:55:45;14.10;99.90
35541;DHT22;21650;48.840;9.162;2023-08-08T00:58:12;14.00;99.90
35541;DHT22;21650;48.840;9.162;2023-08-08T01:00:38;14.00;99.90
35541;DHT22;21650;48.840;9.162;2023-08-08T01:03:03;14.00;99.90
35541;DHT22;21650;48.840;9.162;2023-08-08T01:05:35;14.00;99.90
35541;DHT22;21650;48.840;9.162;2023-08-08T01:08:07;14.00;99.90
35541;DHT22;21650;48.840;9.162;2023-08-08T01:10:39;14.00;99.90
35541;DHT22;21650;48.840;9.162;2023-08-08T01:13:16;14.00;99.90
35541;DHT22;21650;48.840;9.162;2023-08-08T01:15:44;14.10;99.90
35541;DHT22;21650;48.840;9.162;2023-08-08T01:18:11;14.10;99.90
35541;DHT22;21650;48.840;9.162;2023-08-08T01:20:37;14.00;99.90
35541;DHT22;21650;48.840;9.162;2023-08-08T01:23:18;14.00;99.90
35541;DHT22;21650;48.840;9.162;2023-08-08T01:25:44;14.00;99.90
35541;DHT22;21650;48.840;9.162;2023-08-08T01:28:11;14.10;99.90
35541;DHT22;21650;48.840;9.162;2023-08-08T01:30:37;14.00;99.90
35541;DHT22;21650;48.840;9.162;2023-08-08T01:33:03;14.10;99.90
35541;DHT22;21650;48.840;9.162;2023-08-08T01:35:31;14.00;99.90
35541;DHT22;21650;48.840;9.162;2023-08-08T01:38:10;14.00;99.90
35541;DHT22;21650;48.840;9.162;2023-08-08T01:40:38;14.10;99.90
35541;DHT22;21650;48.840;9.162;2023-08-08T01:43:04;14.00;99.90
35541;DHT22;21650;48.840;9.162;2023-08-08T01:45:30;14.00;99.90
35541;DHT22;21650;48.840;9.162;2023-08-08T01:47:56;14.00;99.90
35541;DHT22;21650;48.840;9.162;2023-08-08T01:50:21;14.00;99.90
35541;DHT22;21650;48.840;9.162;2023-08-08T01:52:47;14.00;99.90
35541;DHT22;21650;48.840;9.162;2023-08-08T01:55:13;14.10;99.90
35541;DHT22;21650;48.840;9.162;2023-08-08T01:57:39;14.00;99.90
35541;DHT22;21650;48.840;9.162;2023-08-08T02:00:06;14.10;99.90
35541;DHT22;21650;48.840;9.162;2023-08-08T02:02:32;14.00;99.90
35541;DHT22;21650;48.840;9.162;2023-08-08T02:04:58;14.10;99.90
35541;DHT22;21650;48.840;9.162;2023-08-08T02:07:23;14.00;99.90
35541;DHT22;21650;48.840;9.162;2023-08-08T02:09:49;14.10;99.90
35541;DHT22;21650;48.840;9.162;2023-08-08T02:12:16;14.10;99.90
35541;DHT22;21650;48.840;9.162;2023-08-08T02:14:42;14.10;99.90
35541;DHT22;21650;48.840;9.162;2023-08-08T02:17:07;14.10;99.90
35541;DHT22;21650;48.840;9.162;2023-08-08T02:19:33;14.10;99.90
35541;DHT22;21650;48.840;9.162;2023-08-08T02:21:58;14.20;99.90
35541;DHT22;21650;48.840;9.162;2023-08-08T02:24:24;14.20;99.90
35541;DHT22;21650;48.840;9.162;2023-08-08T02:26:49;14.20;99.90
35541;DHT22;21650;48.840;9.162;2023-08-08T02:29:15;14.30;99.90
35541;DHT22;21650;48.840;9.162;2023-08-08T02:31:41;14.20;99.90
35541;DHT22;21650;48.840;9.162;2023-08-08T02:34:06;14.20;99.90
35541;DHT22;21650;48.840;9.162;2023-08-08T02:36:32;14.20;99.90
35541;DHT22;21650;48.840;9.162;2023-08-08T02:38:58;14.10;99.90
35541;DHT22;21650;48.840;9.162;2023-08-08T02:41:24;14.00;99.90
35541;DHT22;21650;48.840;9.162;2023-08-08T02:43:49;14.00;99.90
35541;DHT22;21650;48.840;9.162;2023-08-08T02:46:15;13.90;99.90
35541;DHT22;21650;48.840;9.162;2023-08-08T02:48:41;13.80;99.90
35541;DHT22;21650;48.840;9.162;2023-08-08T02:51:06;13.80;99.90
35541;DHT22;21650;48.840;9.162;2023-08-08T02:53:32;13.80;99.90
35541;DHT22;21650;48.840;9.162;2023-08-08T02:55:58;13.70;99.90
35541;DHT22;21650;48.840;9.162;2023-08-08T02:58:23;13.70;99.90
35541;DHT22;21650;48.840;9.162;2023-08-08T03:00:49;13.60;99.90
35541;DHT22;21650;48.840;9.162;2023-08-08T03:03:14;13.50;99.90
35541;DHT22;21650;48.840;9.162;2023-08-08T03:05:40;13.40;99.90
35541;DHT22;21650;48.840;9.162;2023-08-08T03:08:06;13.40;99.90
35541;DHT22;21650;48.840;9.162;2023-08-08T03:10:31;13.40;99.90
35541;DHT22;21650;48.840;9.162;2023-08-08T03:12:57;13.30;99.90
35541;DHT22;21650;48.840;9.162;2023-08-08T03:15:22;13.30;99.90
35541;DHT22;21650;48.840;9.162;2023-08-08T03:17:48;13.30;99.90
35541;DHT22;21650;48.840;9.162;2023-08-08T03:20:14;13.30;99.90
35541;DHT22;21650;48.840;9.162;2023-08-08T03:22:39;13.20;99.90
35541;DHT22;21650;48.840;9.162;2023-08-08T03:25:05;13.20;99.90
35541;DHT22;21650;48.840;9.162;2023-08-08T03:27:31;13.20;99.90
35541;DHT22;21650;48.840;9.162;2023-08-08T03:29:56;13.30;99.90
35541;DHT22;21650;48.840;9.162;2023-08-08T03:32:22;13.30;99.90
35541;DHT22;21650;48.840;9.162;2023-08-08T03:34:48;13.30;99.90
35541;DHT22;21650;48.840;9.162;2023-08-08T03:37:14;13.20;99.90
35541;DHT22;21650;48.840;9.162;2023-08-08T03:39:39;13.30;99.90
35541;DHT22;21650;48.840;9.162;2023-08-08T03:42:05;13.30;99.90
35541;DHT22;21650;48.840;9.162;2023-08-08T03:44:31;13.40;99.90
35541;DHT22;21650;48.840;9.162;2023-08-08T03:46:56;13.40;99.90
35541;DHT22;21650;48.840;9.162;2023-08-08T03:49:22;13.40;99.90
35541;DHT22;21650;48.840;9.162;2023-08-08T03:51:47;13.50;99.90
35541;DHT22;21650;48.840;9.162;2023-08-08T03:54:14;13.50;99.90
35541;DHT22;21650;48.840;9.162;2023-08-08T03:56:41;13.50;99.90
35541;DHT22;21650;48.840;9.162;2023-08-08T03:59:07;13.60;99.90
35541;DHT22;21650;48.840;9.162;2023-08-08T04:01:32;13.60;99.90
35541;DHT22;21650;48.840;9.162;2023-08-08T04:03:58;13.60;99.90
35541;DHT22;21650;48.840;9.162;2023-08-08T04:06:24;13.60;99.90
35541;DHT22;21650;48.840;9.162;2023-08-08T04:08:49;13.70;99.90
35541;DHT22;21650;48.840;9.162;2023-08-08T04:11:16;13.80;99.90
35541;DHT22;21650;48.840;9.162;2023-08-08T04:13:41;13.90;99.90
35541;DHT22;21650;48.840;9.162;2023-08-08T04:16:07;13.90;99.90
35541;DHT22;21650;48.840;9.162;2023-08-08T04:18:33;14.00;99.90
35541;DHT22;21650;48.840;9.162;2023-08-08T04:20:58;14.00;99.90
35541;DHT22;21650;48.840;9.162;2023-08-08T04:23:24;14.00;99.90
35541;DHT22;21650;48.840;9.162;2023-08-08T04:25:51;14.00;99.90
35541;DHT22;21650;48.840;9.162;2023-08-08T04:28:17;14.00;99.90
35541;DHT22;21650;48.840;9.162;2023-08-08T04:30:43;14.00;99.90
35541;DHT22;21650;48.840;9.162;2023-08-08T04:33:09;13.90;99.90
35541;DHT22;21650;48.840;9.162;2023-08-08T04:35:35;13.90;99.90
35541;DHT22;21650;48.840;9.162;2023-08-08T04:38:01;14.00;99.90
35541;DHT22;21650;48.840;9.162;2023-08-08T04:40:27;13.90;99.90
35541;DHT22;21650;48.840;9.162;2023-08-08T04:42:52;14.00;99.90
35541;DHT22;21650;48.840;9.162;2023-08-08T04:45:18;13.90;99.90
35541;DHT22;21650;48.840;9.162;2023-08-08T04:47:43;13.90;99.90
35541;DHT22;21650;48.840;9.162;2023-08-08T04:50:10;13.90;99.90
35541;DHT22;21650;48.840;9.162;2023-08-08T04:52:36;13.90;99.90
35541;DHT22;21650;48.840;9.162;2023-08-08T04:55:01;14.00;99.90
35541;DHT22;21650;48.840;9.162;2023-08-08T04:57:27;14.00;99.90
35541;DHT22;21650;48.840;9.162;2023-08-08T04:59:53;14.00;99.90
35541;DHT22;21650;48.840;9.162;2023-08-08T05:02:18;14.00;99.90
35541;DHT22;21650;48.840;9.162;2023-08-08T05:04:44;14.00;99.90
35541;DHT22;21650;48.840;9.162;2023-08-08T05:07:09;14.00;99.90
35541;DHT22;21650;48.840;9.162;2023-08-08T05:09:35;13.90;99.90
35541;DHT22;21650;48.840;9.162;2023-08-08T05:12:01;13.90;99.90
35541;DHT22;21650;48.840;9.162;2023-08-08T05:14:27;14.00;99.90
35541;DHT22;21650;48.840;9.162;2023-08-08T05:16:53;13.90;99.90
35541;DHT22;21650;48.840;9.162;2023-08-08T05:19:18;14.00;99.90
35541;DHT22;21650;48.840;9.162;2023-08-08T05:21:44;14.00;99.90
35541;DHT22;21650;48.840;9.162;2023-08-08T05:24:09;14.10;99.90
35541;DHT22;21650;48.840;9.162;2023-08-08T05:26:35;14.30;99.90
35541;DHT22;21650;48.840;9.162;2023-08-08T05:29:00;14.30;99.90
35541;DHT22;21650;48.840;9.162;2023-08-08T05:31:26;14.40;99.90
35541;DHT22;21650;48.840;9.162;2023-08-08T05:33:52;14.50;99.90
35541;DHT22;21650;48.840;9.162;2023-08-08T05:36:18;14.40;99.90
35541;DHT22;21650;48.840;9.162;2023-08-08T05:38:43;14.40;99.90
35541;DHT22;21650;48.840;9.162;2023-08-08T05:41:09;14.40;99.90
35541;DHT22;21650;48.840;9.162;2023-08-08T05:43:36;14.50;99.90
35541;DHT22;21650;48.840;9.162;2023-08-08T05:46:02;14.50;99.90
35541;DHT22;21650;48.840;9.162;2023-08-08T05:48:27;14.60;99.90
35541;DHT22;21650;48.840;9.162;2023-08-08T05:50:53;14.70;99.90
35541;DHT22;21650;48.840;9.162;2023-08-08T05:53:18;14.70;99.90
35541;DHT22;21650;48.840;9.162;2023-08-08T05:55:44;14.80;99.90
35541;DHT22;21650;48.840;9.162;2023-08-08T05:58:10;14.80;99.90
35541;DHT22;21650;48.840;9.162;2023-08-08T06:00:35;14.90;99.90
35541;DHT22;21650;48.840;9.162;2023-08-08T06:03:01;15.00;99.90
35541;DHT22;21650;48.840;9.162;2023-08-08T06:05:27;15.10;99.90
35541;DHT22;21650;48.840;9.162;2023-08-08T06:07:53;15.10;99.90
35541;DHT22;21650;48.840;9.162;2023-08-08T06:10:21;15.20;99.90
35541;DHT22;21650;48.840;9.162;2023-08-08T06:12:46;15.30;99.90
35541;DHT22;21650;48.840;9.162;2023-08-08T06:15:12;15.30;99.90
35541;DHT22;21650;48.840;9.162;2023-08-08T06:17:38;15.40;99.90
35541;DHT22;21650;48.840;9.162;2023-08-08T06:20:04;15.50;99.90
35541;DHT22;21650;48.840;9.162;2023-08-08T06:22:30;15.50;99.90
35541;DHT22;21650;48.840;9.162;2023-08-08T06:24:55;15.50;99.90
35541;DHT22;21650;48.840;9.162;2023-08-08T06:27:21;15.60;99.90
35541;DHT22;21650;48.840;9.162;2023-08-08T06:29:46;15.70;99.90
35541;DHT22;21650;48.840;9.162;2023-08-08T06:32:12;15.80;99.90
35541;DHT22;21650;48.840;9.162;2023-08-08T06:34:38;15.80;99.90
35541;DHT22;21650;48.840;9.162;2023-08-08T06:37:03;15.90;99.90
35541;DHT22;21650;48.840;9.162;2023-08-08T06:39:29;15.90;99.90
35541;DHT22;21650;48.840;9.162;2023-08-08T06:41:55;16.00;99.90
35541;DHT22;21650;48.840;9.162;2023-08-08T06:44:21;16.20;99.90
35541;DHT22;21650;48.840;9.162;2023-08-08T06:46:46;16.20;99.90
35541;DHT22;21650;48.840;9.162;2023-08-08T06:49:12;16.20;99.90
35541;DHT22;21650;48.840;9.162;2023-08-08T06:51:37;16.20;99.90
35541;DHT22;21650;48.840;9.162;2023-08-08T06:54:03;16.20;99.90
35541;DHT22;21650;48.840;9.162;2023-08-08T06:56:29;16.30;99.90
35541;DHT22;21650;48.840;9.162;2023-08-08T06:58:54;16.40;99.90
35541;DHT22;21650;48.840;9.162;2023-08-08T07:01:20;16.60;99.90
35541;DHT22;21650;48.840;9.162;2023-08-08T07:03:46;16.60;99.90
35541;DHT22;21650;48.840;9.162;2023-08-08T07:06:12;16.70;99.90
35541;DHT22;21650;48.840;9.162;2023-08-08T07:08:38;16.80;99.90
35541;DHT22;21650;48.840;9.162;2023-08-08T07:11:05;16.90;99.90
35541;DHT22;21650;48.840;9.162;2023-08-08T07:13:32;16.90;99.90
35541;DHT22;21650;48.840;9.162;2023-08-08T07:15:57;16.80;99.90
35541;DHT22;21650;48.840;9.162;2023-08-08T07:18:23;16.90;99.90
35541;DHT22;21650;48.840;9.162;2023-08-08T07:20:48;16.90;99.90
35541;DHT22;21650;48.840;9.162;2023-08-08T07:23:15;17.00;99.90
35541;DHT22;21650;48.840;9.162;2023-08-08T07:25:42;17.10;99.90
35541;DHT22;21650;48.840;9.162;2023-08-08T07:28:07;17.10;99.90
35541;DHT22;21650;48.840;9.162;2023-08-08T07:30:34;17.20;99.90
35541;DHT22;21650;48.840;9.162;2023-08-08T07:33:00;17.20;99.90
35541;DHT22;21650;48.840;9.162;2023-08-08T07:35:25;17.20;99.90
35541;DHT22;21650;48.840;9.162;2023-08-08T07:37:51;17.30;99.90
35541;DHT22;21650;48.840;9.162;2023-08-08T07:40:18;17.40;99.90
35541;DHT22;21650;48.840;9.162;2023-08-08T07:42:45;17.50;99.90
35541;DHT22;21650;48.840;9.162;2023-08-08T07:45:11;17.50;99.90
35541;DHT22;21650;48.840;9.162;2023-08-08T07:47:37;17.70;99.90
35541;DHT22;21650;48.840;9.162;2023-08-08T07:50:02;18.00;99.90
35541;DHT22;21650;48.840;9.162;2023-08-08T07:52:28;18.10;99.90
35541;DHT22;21650;48.840;9.162;2023-08-08T07:54:53;18.40;99.90
35541;DHT22;21650;48.840;9.162;2023-08-08T07:57:19;18.60;99.90
35541;DHT22;21650;48.840;9.162;2023-08-08T07:59:45;18.60;99.90
35541;DHT22;21650;48.840;9.162;2023-08-08T08:02:10;18.60;99.90
35541;DHT22;21650;48.840;9.162;2023-08-08T08:04:36;18.60;99.90
35541;DHT22;21650;48.840;9.162;2023-08-08T08:07:02;18.30;99.90
35541;DHT22;21650;48.840;9.162;2023-08-08T08:09:28;18.20;99.90
35541;DHT22;21650;48.840;9.162;2023-08-08T08:11:54;18.20;99.90
35541;DHT22;21650;48.840;9.162;2023-08-08T08:14:20;18.10;99.90
35541;DHT22;21650;48.840;9.162;2023-08-08T08:16:46;18.00;99.90
35541;DHT22;21650;48.840;9.162;2023-08-08T08:19:12;18.00;99.90
35541;DHT22;21650;48.840;9.162;2023-08-08T08:21:37;18.00;99.90
35541;DHT22;21650;48.840;9.162;2023-08-08T08:24:03;18.10;99.90
35541;DHT22;21650;48.840;9.162;2023-08-08T08:26:29;18.10;99.90
35541;DHT22;21650;48.840;9.162;2023-08-08T08:28:55;18.20;99.90
35541;DHT22;21650;48.840;9.162;2023-08-08T08:31:20;18.40;99.90
35541;DHT22;21650;48.840;9.162;2023-08-08T08:33:46;18.40;99.90
35541;DHT22;21650;48.840;9.162;2023-08-08T08:36:12;18.60;99.90
35541;DHT22;21650;48.840;9.162;2023-08-08T08:38:37;18.70;99.90
35541;DHT22;21650;48.840;9.162;2023-08-08T08:41:03;18.80;99.90
35541;DHT22;21650;48.840;9.162;2023-08-08T08:43:31;19.10;99.90
35541;DHT22;21650;48.840;9.162;2023-08-08T08:46:00;19.40;99.90
35541;DHT22;21650;48.840;9.162;2023-08-08T08:48:28;19.70;99.90
35541;DHT22;21650;48.840;9.162;2023-08-08T08:50:53;19.80;99.90
35541;DHT22;21650;48.840;9.162;2023-08-08T08:53:19;19.90;99.90
35541;DHT22;21650;48.840;9.162;2023-08-08T08:55:46;19.80;99.90
35541;DHT22;21650;48.840;9.162;2023-08-08T08:58:14;20.20;99.90
35541;DHT22;21650;48.840;9.162;2023-08-08T09:00:43;20.30;99.90
35541;DHT22;21650;48.840;9.162;2023-08-08T09:03:10;20.70;99.90
35541;DHT22;21650;48.840;9.162;2023-08-08T09:05:36;20.90;99.90
35541;DHT22;21650;48.840;9.162;2023-08-08T09:08:03;20.50;99.90
35541;DHT22;21650;48.840;9.162;2023-08-08T09:10:30;20.90;99.90
35541;DHT22;21650;48.840;9.162;2023-08-08T09:12:57;20.90;99.90
35541;DHT22;21650;48.840;9.162;2023-08-08T09:15:23;20.90;99.90
35541;DHT22;21650;48.840;9.162;2023-08-08T09:17:48;20.50;99.90
35541;DHT22;21650;48.840;9.162;2023-08-08T09:20:14;20.50;99.90
35541;DHT22;21650;48.840;9.162;2023-08-08T09:22:40;20.50;99.90
35541;DHT22;21650;48.840;9.162;2023-08-08T09:25:06;20.60;99.90
35541;DHT22;21650;48.840;9.162;2023-08-08T09:27:34;20.60;99.90
35541;DHT22;21650;48.840;9.162;2023-08-08T09:30:00;20.30;99.90
35541;DHT22;21650;48.840;9.162;2023-08-08T09:32:32;20.20;99.90
35541;DHT22;21650;48.840;9.162;2023-08-08T09:34:58;20.20;99.90
35541;DHT22;21650;48.840;9.162;2023-08-08T09:37:24;20.20;99.90
35541;DHT22;21650;48.840;9.162;2023-08-08T09:39:59;20.20;99.90
35541;DHT22;21650;48.840;9.162;2023-08-08T09:42:28;20.40;99.90
35541;DHT22;21650;48.840;9.162;2023-08-08T09:44:56;20.80;99.90
35541;DHT22;21650;48.840;9.162;2023-08-08T09:47:22;20.90;99.90
35541;DHT22;21650;48.840;9.162;2023-08-08T09:49:48;21.10;99.90
35541;DHT22;21650;48.840;9.162;2023-08-08T09:52:15;21.30;99.90
35541;DHT22;21650;48.840;9.162;2023-08-08T09:54:42;21.30;99.90
35541;DHT22;21650;48.840;9.162;2023-08-08T09:57:07;21.60;99.90
35541;DHT22;21650;48.840;9.162;2023-08-08T09:59:34;21.60;99.90
35541;DHT22;21650;48.840;9.162;2023-08-08T10:02:00;21.40;99.90
35541;DHT22;21650;48.840;9.162;2023-08-08T10:04:26;21.30;99.50
35541;DHT22;21650;48.840;9.162;2023-08-08T10:06:52;21.20;99.90
35541;DHT22;21650;48.840;9.162;2023-08-08T10:09:18;21.30;99.90
35541;DHT22;21650;48.840;9.162;2023-08-08T10:11:44;21.10;99.50
35541;DHT22;21650;48.840;9.162;2023-08-08T10:14:10;21.10;99.90
35541;DHT22;21650;48.840;9.162;2023-08-08T10:16:41;21.40;99.90
35541;DHT22;21650;48.840;9.162;2023-08-08T10:19:07;21.80;99.80
35541;DHT22;21650;48.840;9.162;2023-08-08T10:21:36;22.10;99.20
35541;DHT22;21650;48.840;9.162;2023-08-08T10:24:03;21.90;97.90
35541;DHT22;21650;48.840;9.162;2023-08-08T10:26:29;21.70;98.00
35541;DHT22;21650;48.840;9.162;2023-08-08T10:28:56;21.50;98.30
35541;DHT22;21650;48.840;9.162;2023-08-08T10:31:22;21.50;98.80
35541;DHT22;21650;48.840;9.162;2023-08-08T10:33:48;21.50;97.80
35541;DHT22;21650;48.840;9.162;2023-08-08T10:36:14;21.40;98.10
35541;DHT22;21650;48.840;9.162;2023-08-08T10:38:44;21.40;97.60
35541;DHT22;21650;48.840;9.162;2023-08-08T10:41:13;21.60;98.50
35541;DHT22;21650;48.840;9.162;2023-08-08T10:43:50;21.90;97.20
35541;DHT22;21650;48.840;9.162;2023-08-08T10:46:32;22.20;98.10
35541;DHT22;21650;48.840;9.162;2023-08-08T10:49:00;22.20;96.50
35541;DHT22;21650;48.840;9.162;2023-08-08T10:51:41;21.90;95.30
35541;DHT22;21650;48.840;9.162;2023-08-08T10:54:25;21.70;96.20
35541;DHT22;21650;48.840;9.162;2023-08-08T10:56:57;21.60;96.50
35541;DHT22;21650;48.840;9.162;2023-08-08T10:59:26;21.80;96.50
35541;DHT22;21650;48.840;9.162;2023-08-08T11:01:52;22.30;98.60
35541;DHT22;21650;48.840;9.162;2023-08-08T11:04:23;22.20;94.80
35541;DHT22;21650;48.840;9.162;2023-08-08T11:06:49;22.20;95.00
35541;DHT22;21650;48.840;9.162;2023-08-08T11:09:17;22.80;95.20
35541;DHT22;21650;48.840;9.162;2023-08-08T11:11:44;23.30;93.90
35541;DHT22;21650;48.840;9.162;2023-08-08T11:14:17;23.30;93.90
35541;DHT22;21650;48.840;9.162;2023-08-08T11:16:44;22.90;94.20
35541;DHT22;21650;48.840;9.162;2023-08-08T11:19:11;22.80;94.40
35541;DHT22;21650;48.840;9.162;2023-08-08T11:21:40;23.10;93.10
35541;DHT22;21650;48.840;9.162;2023-08-08T11:24:06;22.90;90.90
35541;DHT22;21650;48.840;9.162;2023-08-08T11:26:34;22.40;91.90
35541;DHT22;21650;48.840;9.162;2023-08-08T11:29:00;22.60;93.60
35541;DHT22;21650;48.840;9.162;2023-08-08T11:31:26;22.60;93.90
35541;DHT22;21650;48.840;9.162;2023-08-08T11:33:53;23.10;93.60
35541;DHT22;21650;48.840;9.162;2023-08-08T11:36:20;23.30;93.80
35541;DHT22;21650;48.840;9.162;2023-08-08T11:38:46;23.40;93.00
35541;DHT22;21650;48.840;9.162;2023-08-08T11:41:16;23.10;92.40
35541;DHT22;21650;48.840;9.162;2023-08-08T11:43:43;22.80;92.80
35541;DHT22;21650;48.840;9.162;2023-08-08T11:46:11;22.50;92.80
35541;DHT22;21650;48.840;9.162;2023-08-08T11:48:37;22.30;94.30
35541;DHT22;21650;48.840;9.162;2023-08-08T11:51:04;22.50;94.00
35541;DHT22;21650;48.840;9.162;2023-08-08T11:53:30;22.70;93.40
35541;DHT22;21650;48.840;9.162;2023-08-08T11:55:57;22.80;93.90
35541;DHT22;21650;48.840;9.162;2023-08-08T11:58:24;22.70;92.60
35541;DHT22;21650;48.840;9.162;2023-08-08T12:00:51;22.60;94.20
35541;DHT22;21650;48.840;9.162;2023-08-08T12:03:18;22.60;93.30
35541;DHT22;21650;48.840;9.162;2023-08-08T12:05:46;22.80;93.50
35541;DHT22;21650;48.840;9.162;2023-08-08T12:08:12;23.10;93.10
35541;DHT22;21650;48.840;9.162;2023-08-08T12:10:38;23.40;92.80
35541;DHT22;21650;48.840;9.162;2023-08-08T12:13:04;23.00;91.80
35541;DHT22;21650;48.840;9.162;2023-08-08T12:15:32;22.60;93.40
35541;DHT22;21650;48.840;9.162;2023-08-08T12:18:01;22.80;93.50
35541;DHT22;21650;48.840;9.162;2023-08-08T12:20:28;23.30;91.30
35541;DHT22;21650;48.840;9.162;2023-08-08T12:22:58;23.20;91.10
35541;DHT22;21650;48.840;9.162;2023-08-08T12:25:24;22.60;90.70
35541;DHT22;21650;48.840;9.162;2023-08-08T12:27:50;22.70;91.70
35541;DHT22;21650;48.840;9.162;2023-08-08T12:30:15;23.00;92.20
35541;DHT22;21650;48.840;9.162;2023-08-08T12:32:41;23.10;92.00
35541;DHT22;21650;48.840;9.162;2023-08-08T12:35:07;22.90;91.40
35541;DHT22;21650;48.840;9.162;2023-08-08T12:37:33;23.10;91.80
35541;DHT22;21650;48.840;9.162;2023-08-08T12:39:58;23.20;92.00
35541;DHT22;21650;48.840;9.162;2023-08-08T12:42:24;23.30;93.60
35541;DHT22;21650;48.840;9.162;2023-08-08T12:44:49;23.10;92.10
35541;DHT22;21650;48.840;9.162;2023-08-08T12:47:18;23.10;92.60
35541;DHT22;21650;48.840;9.162;2023-08-08T12:49:44;22.60;91.80
35541;DHT22;21650;48.840;9.162;2023-08-08T12:52:09;22.50;92.00
35541;DHT22;21650;48.840;9.162;2023-08-08T12:54:35;23.00;92.50
35541;DHT22;21650;48.840;9.162;2023-08-08T12:57:01;23.30;91.70
35541;DHT22;21650;48.840;9.162;2023-08-08T12:59:27;23.50;91.30
35541;DHT22;21650;48.840;9.162;2023-08-08T13:01:53;23.80;91.50
35541;DHT22;21650;48.840;9.162;2023-08-08T13:04:18;24.00;90.90
35541;DHT22;21650;48.840;9.162;2023-08-08T13:06:45;24.00;91.70
35541;DHT22;21650;48.840;9.162;2023-08-08T13:09:10;23.60;92.00
35541;DHT22;21650;48.840;9.162;2023-08-08T13:11:36;23.40;91.80
35541;DHT22;21650;48.840;9.162;2023-08-08T13:14:02;23.70;91.70
35541;DHT22;21650;48.840;9.162;2023-08-08T13:16:27;23.20;91.10
35541;DHT22;21650;48.840;9.162;2023-08-08T13:18:53;22.50;92.40
35541;DHT22;21650;48.840;9.162;2023-08-08T13:21:18;22.30;94.10
35541;DHT22;21650;48.840;9.162;2023-08-08T13:23:44;22.60;93.70
35541;DHT22;21650;48.840;9.162;2023-08-08T13:26:09;22.50;93.40
35541;DHT22;21650;48.840;9.162;2023-08-08T13:28:35;22.40;93.60
35541;DHT22;21650;48.840;9.162;2023-08-08T13:31:00;22.70;93.40
35541;DHT22;21650;48.840;9.162;2023-08-08T13:33:26;22.80;93.30
35541;DHT22;21650;48.840;9.162;2023-08-08T13:35:51;22.90;93.50
35541;DHT22;21650;48.840;9.162;2023-08-08T13:38:17;23.20;94.30
35541;DHT22;21650;48.840;9.162;2023-08-08T13:40:43;23.60;92.30
35541;DHT22;21650;48.840;9.162;2023-08-08T13:43:09;23.70;93.20
35541;DHT22;21650;48.840;9.162;2023-08-08T13:45:35;23.90;91.20
35541;DHT22;21650;48.840;9.162;2023-08-08T13:48:01;24.30;91.00
35541;DHT22;21650;48.840;9.162;2023-08-08T13:50:27;24.70;91.70
35541;DHT22;21650;48.840;9.162;2023-08-08T13:52:53;24.10;89.60
35541;DHT22;21650;48.840;9.162;2023-08-08T13:55:19;23.80;91.00
35541;DHT22;21650;48.840;9.162;2023-08-08T13:57:45;24.20;89.90
35541;DHT22;21650;48.840;9.162;2023-08-08T14:00:11;24.10;90.20
35541;DHT22;21650;48.840;9.162;2023-08-08T14:02:38;24.20;90.90
35541;DHT22;21650;48.840;9.162;2023-08-08T14:05:04;24.20;90.40
35541;DHT22;21650;48.840;9.162;2023-08-08T14:07:32;24.20;91.10
35541;DHT22;21650;48.840;9.162;2023-08-08T14:09:58;23.70;91.50
35541;DHT22;21650;48.840;9.162;2023-08-08T14:12:23;23.50;92.00
35541;DHT22;21650;48.840;9.162;2023-08-08T14:14:49;23.30;91.00
35541;DHT22;21650;48.840;9.162;2023-08-08T14:17:14;23.60;90.90
35541;DHT22;21650;48.840;9.162;2023-08-08T14:19:40;23.50;91.60
35541;DHT22;21650;48.840;9.162;2023-08-08T14:22:05;23.50;91.60
35541;DHT22;21650;48.840;9.162;2023-08-08T14:24:31;24.10;92.10
35541;DHT22;21650;48.840;9.162;2023-08-08T14:26:57;24.10;90.20
35541;DHT22;21650;48.840;9.162;2023-08-08T14:29:22;23.70;87.70
35541;DHT22;21650;48.840;9.162;2023-08-08T14:31:48;23.60;90.20
35541;DHT22;21650;48.840;9.162;2023-08-08T14:34:14;23.30;89.50
35541;DHT22;21650;48.840;9.162;2023-08-08T14:36:40;23.10;90.20
35541;DHT22;21650;48.840;9.162;2023-08-08T14:39:07;22.70;90.70
35541;DHT22;21650;48.840;9.162;2023-08-08T14:41:32;22.50;91.20
35541;DHT22;21650;48.840;9.162;2023-08-08T14:43:58;22.20;91.50
35541;DHT22;21650;48.840;9.162;2023-08-08T14:46:23;22.30;94.10
35541;DHT22;21650;48.840;9.162;2023-08-08T14:48:49;22.30;93.50
35541;DHT22;21650;48.840;9.162;2023-08-08T14:51:15;22.10;93.00
35541;DHT22;21650;48.840;9.162;2023-08-08T14:53:42;22.00;93.20
35541;DHT22;21650;48.840;9.162;2023-08-08T14:56:09;21.90;93.50
35541;DHT22;21650;48.840;9.162;2023-08-08T14:58:34;22.00;93.20
35541;DHT22;21650;48.840;9.162;2023-08-08T15:01:01;22.10;93.80
35541;DHT22;21650;48.840;9.162;2023-08-08T15:03:27;21.90;93.80
35541;DHT22;21650;48.840;9.162;2023-08-08T15:05:52;21.80;94.50
35541;DHT22;21650;48.840;9.162;2023-08-08T15:08:18;21.50;94.00
35541;DHT22;21650;48.840;9.162;2023-08-08T15:10:44;21.40;95.10
35541;DHT22;21650;48.840;9.162;2023-08-08T15:13:09;21.30;94.70
35541;DHT22;21650;48.840;9.162;2023-08-08T15:15:35;21.20;95.20
35541;DHT22;21650;48.840;9.162;2023-08-08T15:18:00;21.20;95.00
35541;DHT22;21650;48.840;9.162;2023-08-08T15:20:26;21.50;94.90
35541;DHT22;21650;48.840;9.162;2023-08-08T15:22:52;21.90;94.50
35541;DHT22;21650;48.840;9.162;2023-08-08T15:25:17;22.30;94.80